Time;durP1;ratioP1;P1;durP2;ratioP2;P2;SDS_P1;SDS_P2;PMS_P1;PMS_P2;Temp;Humidity;BMP_temperature;BMP_pressure;BME280_temperature;BME280_humidity;BME280_pressure;Samples;Min_cycle;Max_cycle;Signal;HPM_P1;HPM_P2
2021/04/17 00:00:17;;;;;;;1.57;1.47;;;26.80;23.90;;;;;;5082920;28;20450;-40
2021/04/17 00:02:48;;;;;;;4.70;1.50;;;26.80;24.00;;;;;;5082411;28;20466;-39
2021/04/17 00:05:18;;;;;;;4.33;1.33;;;26.60;23.90;;;;;;5082568;28;20836;-40
2021/04/17 00:07:49;;;;;;;2.77;1.63;;;26.60;24.20;;;;;;5081870;28;20898;-37
2021/04/17 00:10:20;;;;;;;1.40;1.23;;;26.60;23.80;;;;;;5083131;28;20479;-39
2021/04/17 00:12:50;;;;;;;2.10;1.33;;;26.60;24.60;;;;;;5150798;27;20445;-37
2021/04/17 00:15:20;;;;;;;1.13;1.03;;;26.60;24.10;;;;;;5165677;27;20975;-39
2021/04/17 00:17:50;;;;;;;1.70;1.00;;;26.60;23.80;;;;;;5166241;27;20575;-39
2021/04/17 00:20:21;;;;;;;2.00;1.40;;;26.40;24.10;;;;;;5166755;27;20492;-38
2021/04/17 00:22:52;;;;;;;3.00;1.27;;;26.30;24.20;;;;;;5166297;27;20444;-37
2021/04/17 00:25:22;;;;;;;1.33;1.23;;;26.30;24.40;;;;;;5166457;27;20444;-39
2021/04/17 00:27:52;;;;;;;1.30;1.17;;;26.20;24.60;;;;;;5166030;27;20437;-40
2021/04/17 00:30:23;;;;;;;1.30;1.20;;;26.10;24.00;;;;;;5166197;27;20448;-39
2021/04/17 00:32:53;;;;;;;1.20;1.10;;;26.00;23.70;;;;;;5164952;27;20451;-39
2021/04/17 00:35:24;;;;;;;1.50;1.40;;;25.90;24.20;;;;;;5166084;27;20852;-36
2021/04/17 00:37:55;;;;;;;2.60;1.43;;;25.90;23.40;;;;;;5166492;27;20444;-37
2021/04/17 00:40:26;;;;;;;2.53;1.60;;;25.80;24.40;;;;;;5165187;27;20838;-34
2021/04/17 00:42:56;;;;;;;4.23;1.70;;;25.80;24.10;;;;;;5165459;27;20436;-38
2021/04/17 00:45:27;;;;;;;2.30;1.60;;;25.70;25.20;;;;;;5166010;27;20523;-37
2021/04/17 00:47:57;;;;;;;2.07;1.60;;;25.70;24.30;;;;;;5166127;27;20440;-41
2021/04/17 00:50:27;;;;;;;1.77;1.20;;;25.50;23.20;;;;;;5165944;27;20458;-41
2021/04/17 00:52:58;;;;;;;3.17;1.50;;;25.40;23.90;;;;;;5165002;27;20444;-41
2021/04/17 00:55:28;;;;;;;2.70;1.40;;;25.40;24.20;;;;;;5165476;27;20463;-40
2021/04/17 00:57:58;;;;;;;3.00;1.30;;;25.40;24.50;;;;;;5165642;27;20460;-39
2021/04/17 01:00:28;;;;;;;1.40;1.20;;;25.30;24.30;;;;;;5166168;27;20567;-43
2021/04/17 01:03:05;;;;;;;2.67;1.73;;;25.30;24.50;;;;;;5165415;27;20447;-39
2021/04/17 01:05:36;;;;;;;1.50;1.37;;;25.20;24.50;;;;;;5165501;27;20464;-40
2021/04/17 01:08:15;;;;;;;4.30;1.40;;;25.20;24.20;;;;;;5165502;27;20741;-41
2021/04/17 01:10:54;;;;;;;4.90;1.60;;;25.10;24.40;;;;;;5165291;27;20456;-37
2021/04/17 01:13:24;;;;;;;4.40;1.80;;;25.00;24.50;;;;;;5163419;27;20476;-41
2021/04/17 01:15:55;;;;;;;2.80;1.60;;;25.00;24.40;;;;;;5164852;27;20528;-39
2021/04/17 01:18:26;;;;;;;1.47;1.37;;;24.90;25.10;;;;;;5161795;27;20596;-40
2021/04/17 01:20:58;;;;;;;2.67;1.70;;;24.90;25.10;;;;;;5165475;27;20448;-40
2021/04/17 01:23:35;;;;;;;3.03;1.67;;;24.90;24.90;;;;;;5164447;27;20488;-40
2021/04/17 01:26:09;;;;;;;4.50;1.50;;;24.80;24.90;;;;;;5165556;27;20464;-39
2021/04/17 01:28:41;;;;;;;2.80;1.27;;;24.80;24.60;;;;;;5163827;27;21043;-36
2021/04/17 01:31:13;;;;;;;3.20;1.60;;;24.70;24.80;;;;;;5165042;27;20452;-38
2021/04/17 01:33:47;;;;;;;2.40;1.67;;;24.60;25.00;;;;;;5164473;27;20497;-39
2021/04/17 01:36:18;;;;;;;3.57;1.97;;;24.60;25.20;;;;;;5164781;27;20528;-35
2021/04/17 01:38:52;;;;;;;3.20;1.70;;;24.50;25.10;;;;;;5162930;27;20520;-39
2021/04/17 01:41:44;;;;;;;2.47;1.47;;;24.50;24.90;;;;;;5164066;27;20487;-35
2021/04/17 01:44:18;;;;;;;2.77;2.00;;;24.40;25.40;;;;;;5155517;27;20543;-35
2021/04/17 01:46:55;;;;;;;4.33;2.10;;;24.30;25.00;;;;;;5164924;27;20899;-38
2021/04/17 01:49:26;;;;;;;4.07;2.93;;;24.30;24.80;;;;;;5160510;27;20474;-37
2021/04/17 01:51:58;;;;;;;2.77;2.57;;;24.30;25.40;;;;;;5153966;27;20476;-36
2021/04/17 01:54:30;;;;;;;4.93;2.70;;;24.20;25.70;;;;;;5160217;27;20454;-38
2021/04/17 01:57:04;;;;;;;2.43;2.20;;;24.10;25.50;;;;;;5163750;27;20483;-38
2021/04/17 01:59:51;;;;;;;4.10;2.00;;;24.00;26.10;;;;;;5162501;27;20451;-39
2021/04/17 02:02:24;;;;;;;1.40;1.30;;;24.00;25.60;;;;;;5161197;27;20436;-35
2021/04/17 02:04:56;;;;;;;1.43;1.30;;;23.90;24.90;;;;;;5160436;27;20437;-36
2021/04/17 02:07:29;;;;;;;2.03;1.30;;;23.80;25.50;;;;;;5162023;27;20449;-37
2021/04/17 02:10:00;;;;;;;1.27;1.13;;;23.70;25.30;;;;;;5150824;27;20448;-39
2021/04/17 02:12:32;;;;;;;2.30;1.17;;;23.60;25.60;;;;;;5163651;27;20527;-38
2021/04/17 02:15:03;;;;;;;1.30;1.00;;;23.60;25.60;;;;;;5159082;27;20826;-39
2021/04/17 02:17:45;;;;;;;1.60;1.50;;;23.50;26.10;;;;;;5161285;27;20483;-39
2021/04/17 02:20:26;;;;;;;1.50;1.40;;;23.50;26.40;;;;;;5163688;27;20496;-36
2021/04/17 02:23:08;;;;;;;2.40;1.60;;;23.40;26.20;;;;;;5161503;27;20466;-36
2021/04/17 02:25:46;;;;;;;2.53;1.40;;;23.30;26.00;;;;;;5162779;27;20448;-38
2021/04/17 02:28:17;;;;;;;2.00;1.40;;;23.20;26.00;;;;;;5161936;27;20512;-35
2021/04/17 02:30:47;;;;;;;2.50;1.30;;;23.10;25.80;;;;;;5164116;27;20520;-33
2021/04/17 02:33:17;;;;;;;1.80;1.10;;;23.10;25.70;;;;;;5161802;27;20492;-38
2021/04/17 02:35:47;;;;;;;2.00;1.80;;;22.90;26.90;;;;;;5164426;27;20487;-37
2021/04/17 02:38:18;;;;;;;3.83;1.47;;;22.90;27.40;;;;;;5164184;27;20459;-38
2021/04/17 02:40:48;;;;;;;3.50;2.00;;;22.80;27.80;;;;;;5167674;27;20864;-37
2021/04/17 02:43:20;;;;;;;1.60;1.50;;;22.60;27.60;;;;;;5167641;27;20504;-40
2021/04/17 02:45:50;;;;;;;1.60;1.50;;;22.50;26.20;;;;;;5168745;27;20966;-39
2021/04/17 02:48:20;;;;;;;2.00;1.80;;;22.50;26.80;;;;;;5167912;27;20452;-39
2021/04/17 02:50:50;;;;;;;3.10;2.00;;;22.40;27.00;;;;;;5167919;27;20482;-38
2021/04/17 02:53:20;;;;;;;2.70;1.80;;;22.30;27.90;;;;;;5166598;27;20477;-38
2021/04/17 02:55:50;;;;;;;3.20;2.23;;;22.00;29.50;;;;;;5158807;27;20484;-37
2021/04/17 02:58:21;;;;;;;1.70;1.60;;;21.80;29.60;;;;;;5167697;27;20528;-38
2021/04/17 03:00:53;;;;;;;3.90;1.67;;;21.50;30.00;;;;;;5167337;27;20444;-38
2021/04/17 03:03:24;;;;;;;2.10;1.90;;;21.40;29.40;;;;;;5167160;27;20485;-39
2021/04/17 03:05:54;;;;;;;3.60;2.10;;;21.20;31.70;;;;;;5168383;27;20432;-38
2021/04/17 03:08:31;;;;;;;4.33;2.00;;;21.10;32.70;;;;;;5167287;27;21015;-37
2021/04/17 03:11:09;;;;;;;2.57;1.73;;;20.80;35.60;;;;;;5166115;27;20475;-35
2021/04/17 03:13:40;;;;;;;3.80;1.80;;;20.60;32.60;;;;;;5167296;27;20818;-37
2021/04/17 03:16:10;;;;;;;2.20;2.00;;;20.50;31.40;;;;;;5167963;27;20475;-38
2021/04/17 03:18:40;;;;;;;4.40;3.47;;;20.30;34.00;;;;;;5165753;27;20432;-35
2021/04/17 03:21:11;;;;;;;4.67;3.60;;;20.20;36.70;;;;;;5166982;27;20482;-38
2021/04/17 03:23:41;;;;;;;11.40;4.80;;;20.00;35.60;;;;;;5161042;27;20448;-38
2021/04/17 03:26:11;;;;;;;7.00;3.90;;;19.80;36.90;;;;;;5168001;27;20453;-38
2021/04/17 03:28:42;;;;;;;8.30;3.50;;;19.60;37.40;;;;;;5166960;27;20448;-38
2021/04/17 03:31:12;;;;;;;4.83;3.23;;;19.50;37.00;;;;;;5166618;27;20430;-36
2021/04/17 03:33:42;;;;;;;3.70;3.03;;;19.40;39.20;;;;;;5165852;27;20428;-39
2021/04/17 03:36:13;;;;;;;4.40;2.70;;;19.20;38.80;;;;;;5165511;27;20496;-38
2021/04/17 03:38:44;;;;;;;4.20;2.97;;;19.10;39.70;;;;;;5167280;27;20426;-37
2021/04/17 03:41:14;;;;;;;3.73;3.00;;;19.00;42.30;;;;;;5166704;27;20479;-39
2021/04/17 03:43:46;;;;;;;6.10;2.90;;;18.90;43.40;;;;;;5163243;27;20444;-40
2021/04/17 03:46:16;;;;;;;5.40;4.27;;;18.80;42.70;;;;;;5167534;27;20436;-38
2021/04/17 03:48:46;;;;;;;8.07;5.50;;;18.70;41.40;;;;;;5163471;27;20474;-39
2021/04/17 03:51:18;;;;;;;7.83;5.30;;;18.60;40.10;;;;;;5166099;27;20490;-39
2021/04/17 03:53:48;;;;;;;6.30;5.50;;;18.50;41.20;;;;;;5164445;27;20784;-39
2021/04/17 03:56:18;;;;;;;6.77;5.97;;;18.50;44.80;;;;;;5167387;27;20505;-40
2021/04/17 03:58:49;;;;;;;6.10;5.20;;;18.30;45.40;;;;;;5167097;27;20820;-39
2021/04/17 04:01:19;;;;;;;6.50;4.90;;;18.20;45.50;;;;;;5162428;27;20419;-39
2021/04/17 04:03:49;;;;;;;7.07;5.00;;;18.10;47.30;;;;;;5167368;27;20494;-37
2021/04/17 04:06:19;;;;;;;8.27;5.10;;;17.90;46.80;;;;;;5164036;27;20447;-39
2021/04/17 04:08:49;;;;;;;5.30;4.70;;;17.70;48.20;;;;;;5166209;27;20526;-39
2021/04/17 04:11:19;;;;;;;6.33;4.40;;;17.60;47.10;;;;;;5166018;27;20418;-39
2021/04/17 04:13:51;;;;;;;5.03;4.63;;;17.50;48.60;;;;;;5158413;27;20454;-35
2021/04/17 04:16:21;;;;;;;4.23;3.83;;;17.50;48.00;;;;;;5167049;27;20958;-38
2021/04/17 04:18:51;;;;;;;4.97;4.50;;;17.30;48.10;;;;;;5166372;27;20507;-36
2021/04/17 04:21:21;;;;;;;5.07;4.63;;;17.30;50.40;;;;;;5163862;27;20420;-39
2021/04/17 04:23:51;;;;;;;5.30;4.83;;;17.20;49.90;;;;;;5166668;27;20467;-38
2021/04/17 04:26:21;;;;;;;6.17;5.20;;;17.10;50.30;;;;;;5149091;27;20418;-39
2021/04/17 04:28:52;;;;;;;6.07;4.70;;;17.00;50.60;;;;;;5166432;27;21871;-39
2021/04/17 04:31:22;;;;;;;7.07;5.00;;;17.00;51.30;;;;;;5166206;27;20407;-39
2021/04/17 04:33:52;;;;;;;6.90;5.13;;;16.80;49.50;;;;;;5164395;27;20455;-39
2021/04/17 04:36:22;;;;;;;5.67;4.87;;;16.80;52.10;;;;;;5160249;27;20472;-40
2021/04/17 04:38:52;;;;;;;9.00;5.20;;;16.70;51.10;;;;;;5166662;27;20444;-37
2021/04/17 04:44:30;;;;;;;5.30;4.80;;;16.60;53.60;;;;;;5149433;27;20418;-35
2021/04/17 04:47:00;;;;;;;7.70;5.63;;;16.50;53.90;;;;;;5156590;27;20433;-39
2021/04/17 04:49:30;;;;;;;9.67;6.00;;;16.30;53.70;;;;;;5160228;27;21018;-39
2021/04/17 04:52:01;;;;;;;6.20;5.60;;;16.20;53.90;;;;;;5160408;27;20452;-39
2021/04/17 04:54:31;;;;;;;7.87;6.23;;;16.20;55.70;;;;;;5165636;27;20471;-38
2021/04/17 04:57:01;;;;;;;6.97;6.33;;;16.10;56.30;;;;;;5163045;27;20490;-37
2021/04/17 04:59:32;;;;;;;6.53;5.43;;;16.00;56.30;;;;;;5164406;27;20448;-38
2021/04/17 05:02:03;;;;;;;7.20;6.50;;;15.90;56.10;;;;;;5162599;27;20467;-38
2021/04/17 05:04:33;;;;;;;6.20;5.60;;;15.80;56.20;;;;;;5162313;27;20477;-38
2021/04/17 05:07:03;;;;;;;8.50;6.50;;;15.70;58.10;;;;;;5153844;27;20447;-38
2021/04/17 05:09:33;;;;;;;6.40;5.83;;;15.70;57.70;;;;;;5163737;27;20422;-38
2021/04/17 05:12:03;;;;;;;7.13;6.13;;;15.60;58.20;;;;;;5163747;27;20883;-38
2021/04/17 05:14:35;;;;;;;7.70;6.90;;;15.50;57.90;;;;;;5165542;27;20441;-36
2021/04/17 05:17:05;;;;;;;6.80;5.90;;;15.40;58.10;;;;;;5158622;27;20472;-37
2021/04/17 05:19:39;;;;;;;6.80;6.10;;;15.30;58.20;;;;;;5165778;27;20482;-37
2021/04/17 05:22:10;;;;;;;6.30;5.70;;;15.20;59.20;;;;;;5164652;27;20820;-38
2021/04/17 05:24:40;;;;;;;7.10;6.40;;;15.20;59.90;;;;;;5164300;27;20444;-38
2021/04/17 05:27:10;;;;;;;7.73;5.50;;;15.20;60.90;;;;;;5164105;27;20440;-38
2021/04/17 05:29:41;;;;;;;6.00;5.50;;;15.10;61.20;;;;;;5165490;27;20428;-40
2021/04/17 05:32:12;;;;;;;5.77;5.23;;;15.00;60.30;;;;;;5165218;27;20492;-37
2021/04/17 05:34:42;;;;;;;8.50;6.10;;;14.90;61.30;;;;;;5165420;27;20444;-35
2021/04/17 05:37:12;;;;;;;6.00;5.50;;;14.90;63.20;;;;;;5164896;27;20476;-39
2021/04/17 05:39:42;;;;;;;6.83;6.23;;;14.80;61.40;;;;;;5165036;27;20764;-35
2021/04/17 05:42:14;;;;;;;6.43;5.30;;;14.80;63.00;;;;;;5164602;27;20476;-37
2021/04/17 05:44:45;;;;;;;8.77;6.10;;;14.80;64.10;;;;;;5165113;27;20546;-37
2021/04/17 05:47:15;;;;;;;6.70;6.00;;;14.70;65.10;;;;;;5165690;27;20915;-36
2021/04/17 05:49:47;;;;;;;6.60;5.93;;;14.60;66.30;;;;;;5165194;27;20451;-36
2021/04/17 05:52:17;;;;;;;6.80;6.17;;;14.50;67.10;;;;;;5155434;27;20444;-36
2021/04/17 05:54:47;;;;;;;15.97;8.70;;;14.40;67.90;;;;;;5164783;27;20450;-36
2021/04/17 05:57:17;;;;;;;11.10;8.20;;;14.30;68.90;;;;;;5164222;27;20486;-38
2021/04/17 05:59:49;;;;;;;9.23;8.33;;;14.30;69.10;;;;;;5165507;27;20447;-39
2021/04/17 06:02:19;;;;;;;9.97;8.97;;;14.30;68.70;;;;;;5147989;27;20515;-37
2021/04/17 06:04:50;;;;;;;9.60;8.50;;;14.20;69.60;;;;;;5164598;27;20448;-38
2021/04/17 06:07:20;;;;;;;9.87;8.87;;;14.20;71.10;;;;;;5164386;27;20475;-36
2021/04/17 06:09:50;;;;;;;9.50;8.67;;;14.20;72.30;;;;;;5165155;27;20459;-41
2021/04/17 06:12:20;;;;;;;9.57;8.77;;;14.00;73.30;;;;;;5163515;27;20456;-37
2021/04/17 06:14:51;;;;;;;9.50;7.90;;;14.00;73.90;;;;;;5163571;27;20451;-37
2021/04/17 06:17:21;;;;;;;9.53;8.67;;;13.90;73.60;;;;;;5164590;27;20504;-37
2021/04/17 06:19:51;;;;;;;10.00;9.00;;;13.90;76.10;;;;;;5164947;27;20443;-36
2021/04/17 06:22:21;;;;;;;9.47;8.53;;;13.80;77.40;;;;;;5156959;27;20838;-38
2021/04/17 06:24:51;;;;;;;9.60;8.80;;;13.70;74.00;;;;;;5164137;27;20447;-35
2021/04/17 06:27:22;;;;;;;9.83;8.80;;;13.70;79.20;;;;;;5163543;27;20439;-36
2021/04/17 06:29:53;;;;;;;9.47;8.60;;;13.70;77.40;;;;;;5165252;27;20436;-37
2021/04/17 06:32:24;;;;;;;8.87;7.90;;;13.60;79.10;;;;;;5156553;27;20419;-38
2021/04/17 06:34:54;;;;;;;7.67;7.07;;;13.60;80.10;;;;;;5163773;27;20456;-37
2021/04/17 06:37:24;;;;;;;9.77;8.63;;;13.50;82.00;;;;;;5161915;27;20476;-37
2021/04/17 06:39:54;;;;;;;8.07;7.47;;;13.50;82.40;;;;;;5152297;27;20473;-38
2021/04/17 06:42:27;;;;;;;8.40;7.70;;;13.40;84.20;;;;;;5162543;27;20528;-37
2021/04/17 06:45:00;;;;;;;10.43;7.80;;;13.30;82.80;;;;;;5164527;27;20447;-37
2021/04/17 06:47:31;;;;;;;8.03;7.37;;;13.30;84.00;;;;;;5164313;27;20448;-41
2021/04/17 06:50:03;;;;;;;9.23;7.97;;;13.20;86.10;;;;;;5164340;27;20520;-40
2021/04/17 06:52:37;;;;;;;7.83;7.10;;;13.20;87.70;;;;;;5163798;27;20809;-37
2021/04/17 06:55:10;;;;;;;9.17;8.20;;;13.20;83.60;;;;;;5164542;27;20466;-38
2021/04/17 06:57:41;;;;;;;8.27;7.57;;;13.10;80.90;;;;;;5163711;27;20602;-37
2021/04/17 07:00:13;;;;;;;7.67;6.97;;;13.10;87.20;;;;;;5164667;27;20493;-38
2021/04/17 07:02:44;;;;;;;8.93;7.53;;;13.10;86.90;;;;;;5163472;27;20451;-35
2021/04/17 07:05:15;;;;;;;9.60;8.20;;;13.00;87.10;;;;;;5164063;27;20448;-36
2021/04/17 07:07:45;;;;;;;9.97;8.80;;;12.90;89.50;;;;;;5164153;27;20485;-38
2021/04/17 07:10:16;;;;;;;10.10;9.13;;;12.90;90.90;;;;;;5164343;27;20447;-38
2021/04/17 07:12:47;;;;;;;8.83;8.03;;;12.90;91.50;;;;;;5163303;27;20425;-38
2021/04/17 07:15:18;;;;;;;9.67;8.67;;;12.80;92.60;;;;;;5164153;27;20451;-38
2021/04/17 07:17:48;;;;;;;10.70;8.97;;;12.80;92.20;;;;;;5163988;27;20536;-37
2021/04/17 07:20:18;;;;;;;9.53;8.67;;;12.80;92.90;;;;;;5164341;27;20447;-37
2021/04/17 07:22:48;;;;;;;8.87;7.93;;;12.70;91.50;;;;;;5163550;27;20602;-39
2021/04/17 07:25:20;;;;;;;9.13;8.23;;;12.60;92.20;;;;;;5164677;27;20531;-39
2021/04/17 07:27:51;;;;;;;9.33;8.43;;;12.50;91.60;;;;;;5167046;27;20459;-38
2021/04/17 07:30:33;;;;;;;7.70;7.00;;;12.50;93.10;;;;;;5167279;27;20451;-40
2021/04/17 07:33:14;;;;;;;9.40;7.53;;;12.50;92.90;;;;;;5167741;27;20807;-36
2021/04/17 07:35:46;;;;;;;8.10;7.37;;;12.40;92.60;;;;;;5167914;27;20451;-39
2021/04/17 07:38:17;;;;;;;8.33;7.53;;;12.30;91.90;;;;;;5167418;27;20479;-37
2021/04/17 07:41:01;;;;;;;9.53;8.50;;;12.30;93.20;;;;;;5167494;27;20572;-38
2021/04/17 07:43:46;;;;;;;9.47;8.00;;;12.20;91.80;;;;;;5166701;27;20452;-38
2021/04/17 07:46:17;;;;;;;10.53;8.60;;;12.30;93.80;;;;;;5167290;27;20451;-36
2021/04/17 07:48:47;;;;;;;9.47;8.77;;;12.20;94.20;;;;;;5166655;27;20567;-36
2021/04/17 07:51:19;;;;;;;9.43;8.53;;;12.20;93.90;;;;;;5167362;27;20443;-38
2021/04/17 07:53:49;;;;;;;9.35;8.30;;;12.20;94.60;;;;;;5166881;27;20840;-38
2021/04/17 07:56:30;;;;;;;9.17;8.20;;;12.00;94.60;;;;;;5166324;27;20203;-39
2021/04/17 07:59:02;;;;;;;8.90;8.10;;;12.00;94.50;;;;;;5166599;27;20476;-40
2021/04/17 08:01:35;;;;;;;9.57;8.67;;;11.90;93.90;;;;;;5165803;27;20447;-38
2021/04/17 08:04:05;;;;;;;12.10;8.93;;;11.90;94.30;;;;;;5167663;27;20521;-38
2021/04/17 08:06:37;;;;;;;10.47;9.37;;;11.90;95.00;;;;;;5162517;27;20452;-39
2021/04/17 08:09:10;;;;;;;9.83;9.00;;;11.90;95.30;;;;;;5167561;27;20860;-36
2021/04/17 08:11:40;;;;;;;8.90;8.05;;;11.80;96.20;;;;;;5165811;27;20880;-37
2021/04/17 08:14:11;;;;;;;9.50;8.70;;;11.80;96.60;;;;;;5166604;27;20214;-39
2021/04/17 08:16:43;;;;;;;10.50;8.40;;;11.80;97.30;;;;;;5165967;27;20571;-38
2021/04/17 08:19:13;;;;;;;11.67;8.73;;;11.80;97.90;;;;;;5166757;27;20468;-36
2021/04/17 08:21:43;;;;;;;9.57;8.67;;;11.70;98.30;;;;;;5166113;27;20500;-36
2021/04/17 08:24:14;;;;;;;8.67;7.97;;;11.60;98.30;;;;;;5167081;27;20436;-38
2021/04/17 08:26:45;;;;;;;9.03;7.83;;;11.50;96.90;;;;;;5164184;27;20459;-34
2021/04/17 08:29:45;;;;;;;8.40;7.60;;;11.40;97.80;;;;;;5160729;27;20440;-39
2021/04/17 08:32:28;;;;;;;8.07;7.27;;;11.40;98.00;;;;;;5163860;27;20456;-39
2021/04/17 08:35:18;;;;;;;8.20;7.50;;;11.40;98.60;;;;;;5163731;27;20436;-34
2021/04/17 08:38:08;;;;;;;8.43;7.67;;;11.30;96.90;;;;;;5158735;27;20483;-34
2021/04/17 08:41:00;;;;;;;9.23;8.43;;;11.40;98.00;;;;;;5166710;27;20504;-36
2021/04/17 08:43:35;;;;;;;8.73;7.95;;;11.30;97.10;;;;;;5158720;27;20481;-39
2021/04/17 08:46:14;;;;;;;9.87;8.07;;;11.20;97.90;;;;;;5165073;27;20216;-36
2021/04/17 08:48:52;;;;;;;8.27;7.53;;;11.20;98.40;;;;;;5163629;27;20432;-37
2021/04/17 08:51:37;;;;;;;9.10;7.70;;;11.10;97.00;;;;;;5161350;27;20432;-33
2021/04/17 08:54:32;;;;;;;8.27;7.47;;;11.10;98.10;;;;;;5165299;27;20493;-38
2021/04/17 08:57:04;;;;;;;7.67;6.93;;;11.00;97.70;;;;;;5164822;27;20476;-35
2021/04/17 08:59:35;;;;;;;8.63;7.75;;;11.00;98.40;;;;;;5166479;27;20444;-38
2021/04/17 09:02:08;;;;;;;7.20;6.60;;;11.00;99.20;;;;;;5164992;27;20213;-38
2021/04/17 09:05:06;;;;;;;8.85;7.95;;;10.90;99.30;;;;;;5166188;27;20895;-36
2021/04/17 09:07:37;;;;;;;10.30;7.90;;;10.90;99.60;;;;;;5165818;27;20205;-36
2021/04/17 09:10:31;;;;;;;7.65;6.88;;;10.80;99.90;;;;;;5166265;27;20191;-36
2021/04/17 09:13:32;;;;;;;9.27;7.72;;;10.80;99.90;;;;;;5165096;27;20273;-37
2021/04/17 09:16:04;;;;;;;16.27;7.53;;;10.80;99.90;;;;;;5162365;27;20580;-37
2021/04/17 09:18:41;;;;;;;8.20;7.40;;;10.80;99.90;;;;;;5162733;27;20238;-37
2021/04/17 09:21:37;;;;;;;7.20;6.50;;;10.60;99.90;;;;;;5165894;27;20225;-35
2021/04/17 09:24:27;;;;;;;8.45;7.53;;;10.60;99.90;;;;;;5161881;27;20206;-36
2021/04/17 09:26:57;;;;;;;7.83;7.03;;;10.60;99.90;;;;;;5150858;27;20217;-38
2021/04/17 09:29:28;;;;;;;9.23;6.88;;;10.50;99.90;;;;;;5164955;27;20490;-33
2021/04/17 09:32:04;;;;;;;7.30;6.60;;;10.50;99.90;;;;;;5164561;27;20271;-38
2021/04/17 09:34:39;;;;;;;8.27;6.80;;;10.50;99.90;;;;;;5164610;27;20187;-38
2021/04/17 09:37:13;;;;;;;7.93;6.57;;;10.40;99.90;;;;;;5164780;27;20471;-37
2021/04/17 09:39:46;;;;;;;6.55;5.90;;;10.30;99.90;;;;;;5148145;27;20205;-38
2021/04/17 09:42:17;;;;;;;6.75;5.65;;;10.30;99.90;;;;;;5163898;27;20230;-37
2021/04/17 09:44:49;;;;;;;7.28;6.57;;;10.30;99.90;;;;;;5164427;27;20228;-38
2021/04/17 09:47:19;;;;;;;9.05;6.68;;;10.20;99.90;;;;;;5164294;27;20213;-39
2021/04/17 09:49:51;;;;;;;6.57;5.95;;;10.20;99.90;;;;;;5164618;27;20342;-38
2021/04/17 09:52:23;;;;;;;9.05;6.25;;;10.30;99.90;;;;;;5164067;27;20275;-33
2021/04/17 09:55:00;;;;;;;6.15;5.50;;;10.30;99.90;;;;;;5164868;27;20281;-36
2021/04/17 09:57:30;;;;;;;7.03;6.38;;;10.20;99.90;;;;;;5162650;27;20206;-36
2021/04/17 10:00:01;;;;;;;8.00;6.10;;;10.10;99.90;;;;;;5165031;27;20223;-37
2021/04/17 10:02:41;;;;;;;7.10;6.40;;;10.10;99.90;;;;;;5153134;27;20210;-34
2021/04/17 10:05:14;;;;;;;6.97;5.90;;;10.20;99.90;;;;;;5163321;27;20190;-37
2021/04/17 10:07:47;;;;;;;6.35;5.75;;;10.10;99.90;;;;;;5164719;27;20206;-35
2021/04/17 10:10:17;;;;;;;6.32;5.80;;;10.20;99.90;;;;;;5150584;27;20270;-38
2021/04/17 10:12:51;;;;;;;6.88;6.00;;;10.10;99.90;;;;;;5163363;27;20250;-39
2021/04/17 10:15:39;;;;;;;6.82;6.18;;;10.10;99.90;;;;;;5164776;27;20194;-37
2021/04/17 10:18:09;;;;;;;8.02;6.40;;;10.10;99.90;;;;;;5147324;27;20256;-39
2021/04/17 10:20:44;;;;;;;6.28;5.70;;;10.00;99.90;;;;;;5164770;27;20281;-38
2021/04/17 10:23:15;;;;;;;9.18;6.15;;;10.00;99.90;;;;;;5164588;27;20292;-36
2021/04/17 10:25:47;;;;;;;6.85;6.10;;;9.90;99.90;;;;;;5164604;27;20190;-36
2021/04/17 10:28:20;;;;;;;7.05;6.32;;;9.90;99.90;;;;;;5162511;27;20217;-39
2021/04/17 10:30:51;;;;;;;6.72;5.80;;;9.80;99.90;;;;;;5164610;27;20198;-37
2021/04/17 10:33:24;;;;;;;6.20;5.60;;;9.90;99.90;;;;;;5144918;27;20202;-36
2021/04/17 10:35:56;;;;;;;7.45;6.70;;;9.90;99.90;;;;;;5164056;27;20194;-37
2021/04/17 10:38:29;;;;;;;12.13;6.57;;;9.90;99.90;;;;;;5164471;27;20556;-36
2021/04/17 10:41:03;;;;;;;6.75;5.65;;;9.90;99.90;;;;;;5164443;27;20226;-37
2021/04/17 10:43:34;;;;;;;7.82;4.90;;;9.80;99.90;;;;;;5162058;27;20194;-34
2021/04/17 10:46:06;;;;;;;6.22;5.65;;;9.80;99.90;;;;;;5164083;27;20205;-35
2021/04/17 10:48:44;;;;;;;9.10;5.97;;;9.70;99.90;;;;;;5163676;27;20233;-36
2021/04/17 10:51:16;;;;;;;6.72;6.13;;;9.80;99.90;;;;;;5163371;27;20226;-35
2021/04/17 10:53:49;;;;;;;6.18;5.55;;;9.80;99.90;;;;;;5164430;27;20191;-36
2021/04/17 10:56:21;;;;;;;6.25;5.65;;;9.80;99.90;;;;;;5163384;27;20255;-33
2021/04/17 10:58:59;;;;;;;7.75;6.85;;;9.90;99.90;;;;;;5163532;27;20215;-38
2021/04/17 11:01:31;;;;;;;7.22;5.95;;;9.90;99.90;;;;;;5166453;27;20293;-35
2021/04/17 11:04:04;;;;;;;6.68;6.07;;;9.80;99.90;;;;;;5168084;27;20247;-37
2021/04/17 11:06:37;;;;;;;6.78;6.18;;;9.90;99.90;;;;;;5167845;27;20209;-37
2021/04/17 11:09:11;;;;;;;5.93;5.30;;;9.80;99.90;;;;;;5168611;27;20216;-38
2021/04/17 11:11:52;;;;;;;7.13;5.93;;;9.80;99.90;;;;;;5166686;27;21185;-37
2021/04/17 11:14:24;;;;;;;7.72;6.32;;;9.70;99.90;;;;;;5168156;27;20224;-36
2021/04/17 11:16:55;;;;;;;9.40;5.05;;;9.70;99.90;;;;;;5160527;27;20191;-33
2021/04/17 11:19:27;;;;;;;5.68;5.18;;;9.60;99.90;;;;;;5168200;27;20259;-38
2021/04/17 11:22:10;;;;;;;6.97;4.68;;;9.60;99.90;;;;;;5167123;27;20210;-37
2021/04/17 11:24:42;;;;;;;5.28;4.70;;;9.50;99.90;;;;;;5166973;27;20195;-37
2021/04/17 11:27:12;;;;;;;4.95;4.45;;;9.50;99.90;;;;;;5166027;27;20525;-38
2021/04/17 11:29:42;;;;;;;4.43;4.05;;;9.50;99.90;;;;;;5168212;27;20198;-37
2021/04/17 11:32:12;;;;;;;4.45;3.90;;;9.60;99.90;;;;;;5161186;27;20259;-38
2021/04/17 11:34:44;;;;;;;3.78;3.50;;;9.50;99.90;;;;;;5167487;27;20239;-37
2021/04/17 11:37:14;;;;;;;2.85;2.65;;;9.50;99.90;;;;;;5167546;27;20236;-39
2021/04/17 11:39:45;;;;;;;3.80;2.97;;;9.60;99.20;;;;;;5167111;27;20227;-37
2021/04/17 11:42:19;;;;;;;2.38;2.17;;;9.80;97.40;;;;;;5166578;27;20280;-38
2021/04/17 11:44:49;;;;;;;2.78;2.58;;;10.00;96.50;;;;;;5168195;27;20226;-38
2021/04/17 11:47:20;;;;;;;3.03;2.72;;;10.10;96.90;;;;;;5167388;27;20211;-38
2021/04/17 11:49:50;;;;;;;4.07;2.72;;;10.00;96.70;;;;;;5166952;27;20576;-38
2021/04/17 11:52:20;;;;;;;3.08;2.78;;;10.10;96.30;;;;;;5166699;27;20195;-34
2021/04/17 11:54:52;;;;;;;4.75;3.08;;;10.10;96.00;;;;;;5165930;27;20277;-35
2021/04/17 11:57:22;;;;;;;3.92;2.55;;;10.10;97.00;;;;;;5166871;27;20267;-34
2021/04/17 11:59:52;;;;;;;3.85;2.58;;;10.00;97.10;;;;;;5167045;27;20201;-41
2021/04/17 12:02:25;;;;;;;2.90;2.60;;;9.80;97.90;;;;;;5167298;27;20194;-36
2021/04/17 12:04:55;;;;;;;4.82;3.10;;;9.80;99.70;;;;;;5167255;27;20220;-38
2021/04/17 12:07:26;;;;;;;2.97;2.72;;;9.70;99.30;;;;;;5167035;27;20213;-41
2021/04/17 12:09:57;;;;;;;5.10;3.20;;;9.60;99.90;;;;;;5167347;27;20187;-35
2021/04/17 12:12:28;;;;;;;4.25;3.22;;;9.60;99.90;;;;;;5166297;27;20202;-34
2021/04/17 12:14:58;;;;;;;3.88;3.47;;;9.50;99.90;;;;;;5167379;27;20202;-38
2021/04/17 12:17:28;;;;;;;3.10;2.80;;;9.50;99.90;;;;;;5167076;27;20238;-38
2021/04/17 12:19:59;;;;;;;3.47;2.97;;;9.50;99.90;;;;;;5167185;27;20214;-34
2021/04/17 12:22:29;;;;;;;2.95;2.67;;;9.40;99.90;;;;;;5166589;27;20199;-38
2021/04/17 12:25:00;;;;;;;5.90;4.45;;;9.40;99.90;;;;;;5167384;27;20199;-39
2021/04/17 12:27:30;;;;;;;4.30;3.90;;;9.40;99.90;;;;;;5166726;27;20289;-36
2021/04/17 12:30:00;;;;;;;5.75;4.20;;;9.30;99.90;;;;;;5166551;27;20568;-38
2021/04/17 12:32:31;;;;;;;4.40;3.63;;;9.40;99.90;;;;;;5165928;27;20194;-37
2021/04/17 12:35:01;;;;;;;5.30;4.00;;;9.50;99.70;;;;;;5166465;27;20199;-35
2021/04/17 12:37:31;;;;;;;6.00;3.92;;;9.50;99.80;;;;;;5166605;27;20586;-36
2021/04/17 12:40:03;;;;;;;3.90;3.50;;;9.60;99.50;;;;;;5167756;27;20220;-32
2021/04/17 12:42:33;;;;;;;4.75;4.05;;;9.60;99.90;;;;;;5149068;27;20218;-37
2021/04/17 12:45:04;;;;;;;3.85;3.55;;;9.50;99.80;;;;;;5166800;27;20194;-36
2021/04/17 12:47:34;;;;;;;4.80;3.25;;;9.50;99.90;;;;;;5166848;27;20202;-37
2021/04/17 12:50:05;;;;;;;4.25;3.85;;;9.50;99.90;;;;;;5165847;27;20199;-39
2021/04/17 12:52:36;;;;;;;4.15;3.60;;;9.40;99.90;;;;;;5160129;27;20600;-38
2021/04/17 12:55:09;;;;;;;4.32;3.92;;;9.40;99.90;;;;;;5167271;27;20214;-40
2021/04/17 12:57:39;;;;;;;4.68;3.38;;;9.30;99.90;;;;;;5165464;27;20614;-37
2021/04/17 13:00:10;;;;;;;4.47;3.80;;;9.30;99.90;;;;;;5165798;27;20198;-39
2021/04/17 13:02:40;;;;;;;3.88;3.58;;;9.20;99.90;;;;;;5163235;27;20565;-38
2021/04/17 13:05:11;;;;;;;6.32;3.60;;;9.20;99.90;;;;;;5165951;27;20263;-34
2021/04/17 13:07:41;;;;;;;4.15;3.80;;;9.10;99.90;;;;;;5157492;27;20190;-34
2021/04/17 13:10:17;;;;;;;5.80;3.97;;;9.00;99.90;;;;;;5166914;27;20389;-33
2021/04/17 13:12:47;;;;;;;4.10;3.70;;;9.00;99.90;;;;;;5155254;27;20236;-36
2021/04/17 13:15:17;;;;;;;3.47;3.17;;;8.90;99.90;;;;;;5165775;27;20198;-36
2021/04/17 13:17:47;;;;;;;5.97;3.92;;;8.90;99.90;;;;;;5165517;27;20263;-35